Buttonville, Canada
Current Conditions -  °F | °C
As of 10:00 PM on Thursday 27 Nov 2014 (Local Time) from CYKZ Reporting Station
Light Snow Light Snow  
Wind Chill: 19°   Ceiling: 2300
Heat Index: 27°   Visibility: 6mi
Dew Point: 25°   Wind: 7mph
Humidity: 93%   Direction: 340°NNW
Pressure: 30.12"   Gusts: NA
Location:  43.86°N, 79.36°W
Report Text: CYKZ 280300Z 34006KT 6SM -SN FEW010 OVC023 M03/M04 A3012 RMKSF2SC6 SLP209
Loading
Personal Weather Stations






























Interactive Weather Map New forecast layout! Learn more

10-Day Weather Forecast

Advertisements
Track Severe Weather on mobile